Terminal Aerodrome Forecast
Issued by NWS Nashville, TN

Home | Current Version | Previous Version | Text Only | Print | Product List | Glossary On
Versions: 1 2 3 4 5 6 7 8 9 10 11 12 13 14 15 16 17 18 19 20 21
000
FTUS44 KOHX 121542 AAC
TAFBNA
TAF AMD
KBNA 121542Z 1216/1312 33019G25KT P6SM SCT025 BKN040
     FM121700 33013G22KT P6SM BKN035
     FM122300 31008KT P6SM FEW250
     FM130400 30004KT P6SM FEW250=

USA.gov is the U.S. government's official web portal to all federal, state and local government web resources and services.